Time;durP1;ratioP1;P1;durP2;ratioP2;P2;SDS_P1;SDS_P2;PMS_P1;PMS_P2;Temp;Humidity;BMP_temperature;BMP_pressure;BME280_temperature;BME280_humidity;BME280_pressure;Samples;Min_cycle;Max_cycle;Signal;HPM_P1;HPM_P2
2022/07/12 00:01:24;;;;;;;13.10;5.10;;;14.40;99.90;;;;;;4755346;30;20052;-74
2022/07/12 00:03:49;;;;;;;6.45;5.15;;;14.40;99.90;;;;;;4754753;30;20055;-74
2022/07/12 00:06:15;;;;;;;8.40;6.22;;;14.30;99.90;;;;;;4748781;30;20074;-75
2022/07/12 00:08:41;;;;;;;10.20;6.75;;;14.30;99.90;;;;;;4752565;30;20044;-74
2022/07/12 00:11:06;;;;;;;10.70;6.75;;;14.30;99.90;;;;;;4753473;30;20052;-75
2022/07/12 00:13:32;;;;;;;11.25;6.20;;;14.30;99.90;;;;;;4737732;30;20094;-75
2022/07/12 00:15:58;;;;;;;9.57;6.82;;;14.20;99.90;;;;;;4741882;30;20051;-75
2022/07/12 00:18:24;;;;;;;9.07;5.93;;;14.20;99.90;;;;;;4754624;30;20445;-74
2022/07/12 00:20:50;;;;;;;7.25;4.93;;;14.20;99.90;;;;;;4755300;30;20055;-74
2022/07/12 00:23:16;;;;;;;6.40;4.90;;;14.10;99.90;;;;;;4755233;30;20484;-75
2022/07/12 00:25:41;;;;;;;;;;;14.00;99.90;;;;;;4755620;30;20055;-75
2022/07/12 00:28:07;;;;;;;5.78;4.20;;;14.00;99.90;;;;;;4749960;30;19929;-75
2022/07/12 00:30:33;;;;;;;6.25;3.67;;;13.90;99.90;;;;;;4737693;30;20616;-74
2022/07/12 00:32:59;;;;;;;5.88;4.53;;;13.90;99.90;;;;;;4737417;30;20045;-74
2022/07/12 00:35:24;;;;;;;8.05;5.55;;;13.80;99.90;;;;;;4708580;30;20139;-75
2022/07/12 00:37:50;;;;;;;6.22;5.28;;;13.80;99.90;;;;;;4739817;30;20359;-75
2022/07/12 00:40:17;;;;;;;6.90;5.10;;;13.80;99.90;;;;;;4740016;30;20115;-75
2022/07/12 00:42:43;;;;;;;6.63;5.07;;;13.80;99.90;;;;;;4753185;30;20119;-75
2022/07/12 00:45:09;;;;;;;6.47;4.75;;;13.80;99.90;;;;;;4737528;30;20048;-74
2022/07/12 00:47:46;;;;;;;9.23;6.40;;;13.80;99.90;;;;;;4737362;30;20374;-74
2022/07/12 00:50:15;;;;;;;9.18;7.00;;;13.80;99.90;;;;;;4755472;30;20051;-76
2022/07/12 00:52:42;;;;;;;10.10;7.13;;;13.80;99.90;;;;;;4769621;30;20097;-75
2022/07/12 00:55:10;;;;;;;13.70;9.43;;;13.80;99.90;;;;;;4740877;30;20051;-76
2022/07/12 00:57:36;;;;;;;16.63;10.45;;;13.80;99.90;;;;;;4741244;30;20056;-75
2022/07/12 01:00:06;;;;;;;17.23;10.05;;;13.90;99.90;;;;;;4708189;30;20067;-75
2022/07/12 01:02:33;;;;;;;17.13;10.70;;;13.90;99.90;;;;;;4737292;30;20134;-75
2022/07/12 01:04:58;;;;;;;;;;;13.90;99.90;;;;;;4753398;30;20484;-75
2022/07/12 01:07:26;;;;;;;27.40;13.57;;;13.90;99.90;;;;;;4752761;30;20037;-75
2022/07/12 01:09:55;;;;;;;83.13;16.42;;;14.00;99.90;;;;;;4752958;30;20064;-74
2022/07/12 01:12:22;;;;;;;95.82;17.33;;;14.00;99.90;;;;;;4753859;30;20478;-76
2022/07/12 01:14:51;;;;;;;302.02;22.50;;;13.90;99.90;;;;;;4770333;30;20078;-74
2022/07/12 01:17:21;;;;;;;106.63;17.17;;;14.00;99.90;;;;;;4770031;30;20512;-75
2022/07/12 01:19:52;;;;;;;117.18;17.55;;;13.90;99.90;;;;;;4738807;30;20060;-74
2022/07/12 01:22:18;;;;;;;196.77;19.85;;;14.00;99.90;;;;;;4736818;30;20052;-75
2022/07/12 01:24:45;;;;;;;;;;;14.10;99.90;;;;;;4737548;30;20386;-75
2022/07/12 01:27:11;;;;;;;161.15;16.27;;;14.10;99.90;;;;;;4736397;30;19962;-74
2022/07/12 01:29:38;;;;;;;111.55;14.20;;;14.10;99.90;;;;;;4737658;30;20052;-74
2022/07/12 01:32:24;;;;;;;216.88;16.30;;;14.10;99.90;;;;;;4770474;30;20052;-75
2022/07/12 01:35:00;;;;;;;111.10;13.27;;;14.00;99.90;;;;;;4770651;30;20112;-74
2022/07/12 01:37:30;;;;;;;179.13;16.55;;;13.90;99.90;;;;;;4753993;30;20040;-75
2022/07/12 01:39:57;;;;;;;171.48;13.43;;;13.90;99.90;;;;;;4750518;30;20052;-74
2022/07/12 01:42:25;;;;;;;403.35;22.08;;;13.90;99.90;;;;;;4752318;30;20360;-74
2022/07/12 01:44:53;;;;;;;323.85;18.48;;;13.90;99.90;;;;;;4736430;30;20044;-76
2022/07/12 01:47:26;;;;;;;162.25;15.48;;;13.90;99.90;;;;;;4751723;30;20052;-74
2022/07/12 01:49:52;;;;;;;315.45;21.75;;;13.90;99.90;;;;;;4740138;30;20043;-76
2022/07/12 01:52:19;;;;;;;161.80;17.58;;;13.90;99.90;;;;;;4770289;30;20121;-75
2022/07/12 01:54:46;;;;;;;150.10;17.13;;;13.90;99.90;;;;;;4739944;30;20537;-75
2022/07/12 01:57:11;;;;;;;;;;;13.90;99.90;;;;;;4768738;30;20044;-75
2022/07/12 01:59:39;;;;;;;167.45;15.75;;;14.00;99.90;;;;;;4752625;30;19922;-74
2022/07/12 02:02:05;;;;;;;440.30;24.58;;;13.90;99.90;;;;;;4736745;30;20098;-76
2022/07/12 02:04:31;;;;;;;;;;;13.90;99.90;;;;;;4737369;30;20056;-76
2022/07/12 02:06:57;;;;;;;399.67;23.13;;;13.90;99.90;;;;;;4737662;30;19922;-74
2022/07/12 02:09:23;;;;;;;163.88;14.70;;;13.90;99.90;;;;;;4733270;30;20052;-75
2022/07/12 02:11:49;;;;;;;266.63;20.20;;;14.00;99.90;;;;;;4722187;30;20056;-74
2022/07/12 02:14:16;;;;;;;193.55;15.45;;;14.00;99.90;;;;;;4736425;30;20106;-75
2022/07/12 02:16:42;;;;;;;;;;;13.90;99.90;;;;;;4737090;30;20052;-75
2022/07/12 02:19:08;;;;;;;70.30;9.30;;;13.90;99.90;;;;;;4736507;30;19922;-74
2022/07/12 02:21:34;;;;;;;127.22;13.05;;;13.90;99.90;;;;;;4736552;30;20052;-74
2022/07/12 02:24:01;;;;;;;83.18;12.68;;;13.80;99.90;;;;;;4739694;30;20048;-74
2022/07/12 02:26:27;;;;;;;68.13;11.95;;;13.80;99.90;;;;;;4739896;30;20052;-75
2022/07/12 02:28:53;;;;;;;63.65;9.95;;;13.90;99.90;;;;;;4739877;30;20131;-74
2022/07/12 02:31:18;;;;;;;75.25;9.32;;;13.80;99.90;;;;;;4756919;30;20127;-75
2022/07/12 02:33:44;;;;;;;75.35;9.57;;;13.90;99.90;;;;;;4757155;30;20146;-75
2022/07/12 02:36:10;;;;;;;114.03;10.55;;;13.70;99.90;;;;;;4757360;30;20096;-76
2022/07/12 02:38:35;;;;;;;110.47;10.63;;;13.70;99.90;;;;;;4728118;30;20099;-75
2022/07/12 02:41:01;;;;;;;113.20;10.25;;;13.70;99.90;;;;;;4724587;30;20052;-74
2022/07/12 02:43:29;;;;;;;136.38;10.90;;;13.70;99.90;;;;;;4753660;30;20040;-75
2022/07/12 02:46:05;;;;;;;97.93;9.35;;;13.60;99.90;;;;;;4738397;30;20367;-74
2022/07/12 02:48:31;;;;;;;200.57;10.97;;;13.50;99.90;;;;;;4736617;30;20044;-76
2022/07/12 02:50:56;;;;;;;272.55;13.88;;;13.50;99.90;;;;;;4772761;30;20293;-74
2022/07/12 02:53:22;;;;;;;99.25;7.97;;;13.50;99.90;;;;;;4766992;30;20044;-74
2022/07/12 02:55:48;;;;;;;97.80;8.95;;;13.60;99.90;;;;;;4739359;30;20055;-74
2022/07/12 02:58:14;;;;;;;;;;;13.50;99.90;;;;;;4734972;30;20060;-75
2022/07/12 03:00:41;;;;;;;129.68;8.88;;;13.50;99.90;;;;;;4772866;30;19921;-74
2022/07/12 03:03:07;;;;;;;219.80;11.73;;;13.50;99.90;;;;;;4756394;30;20047;-75
2022/07/12 03:05:36;;;;;;;136.45;12.23;;;13.50;99.90;;;;;;4756819;30;20143;-75
2022/07/12 03:08:03;;;;;;;285.27;15.40;;;13.40;99.90;;;;;;4747230;30;20131;-75
2022/07/12 03:10:29;;;;;;;203.55;12.20;;;13.40;99.90;;;;;;4738535;30;20134;-74
2022/07/12 03:12:54;;;;;;;98.10;10.00;;;13.30;99.90;;;;;;4738821;30;20060;-75
2022/07/12 03:15:20;;;;;;;197.95;11.88;;;13.40;99.90;;;;;;4737129;30;20052;-75
2022/07/12 03:17:46;;;;;;;190.35;12.55;;;13.30;99.90;;;;;;4745474;30;20061;-74
2022/07/12 03:20:14;;;;;;;169.18;10.55;;;13.30;99.90;;;;;;4756526;30;20370;-76
2022/07/12 03:22:40;;;;;;;108.05;10.55;;;13.30;99.90;;;;;;4727561;30;20116;-75
2022/07/12 03:25:07;;;;;;;72.90;9.57;;;13.30;99.90;;;;;;4756047;30;20052;-74
2022/07/12 03:27:34;;;;;;;106.13;9.35;;;13.30;99.90;;;;;;4750862;30;20079;-76
2022/07/12 03:30:00;;;;;;;65.10;7.60;;;13.30;99.90;;;;;;4738883;30;20470;-76
2022/07/12 03:32:26;;;;;;;45.80;7.05;;;13.20;99.90;;;;;;4738596;30;20135;-75
2022/07/12 03:34:52;;;;;;;92.43;8.60;;;13.30;99.90;;;;;;4739021;30;20150;-77
2022/07/12 03:37:18;;;;;;;56.20;7.88;;;13.30;99.90;;;;;;4753455;30;20044;-75
2022/07/12 03:39:44;;;;;;;27.67;6.55;;;13.20;99.90;;;;;;4741549;30;20055;-75
2022/07/12 03:42:12;;;;;;;25.52;6.25;;;13.30;99.90;;;;;;4754603;30;20363;-75
2022/07/12 03:44:38;;;;;;;21.33;5.65;;;13.40;99.90;;;;;;4748600;30;20079;-75
2022/07/12 03:47:03;;;;;;;43.85;5.90;;;13.40;99.90;;;;;;4709230;30;20091;-76
2022/07/12 03:49:29;;;;;;;43.20;5.50;;;13.30;99.90;;;;;;4723494;30;20048;-75
2022/07/12 03:51:55;;;;;;;47.03;5.63;;;13.30;99.90;;;;;;4738522;30;20055;-75
2022/07/12 03:54:21;;;;;;;52.65;4.95;;;13.30;99.90;;;;;;4738603;30;20395;-76
2022/07/12 03:59:31;;;;;;;34.05;4.18;;;13.20;99.90;;;;;;4737779;30;20055;-77
2022/07/12 04:01:56;;;;;;;18.67;4.35;;;13.10;99.90;;;;;;4723836;30;20048;-76
2022/07/12 04:04:22;;;;;;;85.45;6.22;;;13.20;99.90;;;;;;4738150;30;20375;-76
2022/07/12 04:06:48;;;;;;;61.25;5.32;;;13.10;99.90;;;;;;4737771;30;20052;-75
2022/07/12 04:09:14;;;;;;;34.83;5.03;;;13.10;99.90;;;;;;4723056;30;20072;-74
2022/07/12 04:11:40;;;;;;;16.88;4.45;;;13.20;99.90;;;;;;4753781;30;20108;-76
2022/07/12 04:14:05;;;;;;;29.15;5.55;;;13.30;99.90;;;;;;4755627;30;20043;-77
2022/07/12 04:16:31;;;;;;;24.23;5.25;;;13.20;99.90;;;;;;4755565;30;20040;-76
2022/07/12 04:18:57;;;;;;;26.42;5.40;;;13.30;99.90;;;;;;4771275;30;20063;-75
2022/07/12 04:21:23;;;;;;;25.50;5.10;;;13.30;99.90;;;;;;4755594;30;20440;-77
2022/07/12 04:23:49;;;;;;;21.35;4.50;;;13.40;99.90;;;;;;4740009;30;20110;-75
2022/07/12 04:26:15;;;;;;;15.05;5.00;;;13.60;99.90;;;;;;4737770;30;20044;-75
2022/07/12 04:28:40;;;;;;;26.30;5.30;;;13.50;99.90;;;;;;4736849;30;20117;-75
2022/07/12 04:31:06;;;;;;;7.80;4.88;;;13.60;99.90;;;;;;4771352;30;20051;-75
2022/07/12 04:33:33;;;;;;;11.82;4.80;;;13.70;99.90;;;;;;4755488;30;20363;-76
2022/07/12 04:35:59;;;;;;;9.95;4.72;;;13.80;99.90;;;;;;4755230;30;20470;-74
2022/07/12 04:38:25;;;;;;;13.27;5.57;;;13.90;99.90;;;;;;4755143;30;20050;-76
2022/07/12 04:40:51;;;;;;;9.95;5.22;;;13.90;99.90;;;;;;4738779;30;20087;-75
2022/07/12 04:43:16;;;;;;;7.40;4.93;;;14.00;99.90;;;;;;4737059;30;20044;-75
2022/07/12 04:45:44;;;;;;;6.53;4.78;;;14.10;99.90;;;;;;4736955;30;20056;-76
2022/07/12 04:48:10;;;;;;;7.45;4.95;;;14.20;99.90;;;;;;4751968;30;20394;-76
2022/07/12 04:50:36;;;;;;;8.35;5.40;;;14.10;99.90;;;;;;4738057;30;20048;-75
2022/07/12 04:53:02;;;;;;;8.73;5.90;;;14.10;99.90;;;;;;4736890;30;20048;-75
2022/07/12 04:55:28;;;;;;;8.32;5.30;;;14.20;99.90;;;;;;4737415;30;20056;-75
2022/07/12 04:57:53;;;;;;;8.52;5.80;;;14.20;99.90;;;;;;4737272;30;20062;-75
2022/07/12 05:00:19;;;;;;;7.55;5.43;;;14.20;99.90;;;;;;4748677;30;20447;-76
2022/07/12 05:02:45;;;;;;;8.43;5.90;;;14.20;99.90;;;;;;4754993;30;20047;-76
2022/07/12 05:05:11;;;;;;;8.77;5.32;;;14.20;99.90;;;;;;4729341;30;20412;-76
2022/07/12 05:07:36;;;;;;;8.30;5.35;;;14.30;99.90;;;;;;4736890;30;20054;-75
2022/07/12 05:10:02;;;;;;;9.40;6.10;;;14.30;99.90;;;;;;4733874;30;20064;-75
2022/07/12 05:12:28;;;;;;;8.00;5.28;;;14.30;99.90;;;;;;4719778;30;20052;-76
2022/07/12 05:14:53;;;;;;;11.00;6.15;;;14.40;99.90;;;;;;4719790;30;20056;-77
2022/07/12 05:17:19;;;;;;;7.82;5.72;;;14.50;99.90;;;;;;4719751;30;20135;-75
2022/07/12 05:19:45;;;;;;;7.20;5.35;;;14.50;99.90;;;;;;4743484;30;20080;-75
2022/07/12 05:22:10;;;;;;;8.18;5.45;;;14.70;99.90;;;;;;4737294;30;20105;-76
2022/07/12 05:24:36;;;;;;;15.10;5.95;;;14.70;99.90;;;;;;4737948;30;20479;-78
2022/07/12 05:27:27;;;;;;;8.48;5.95;;;14.60;99.90;;;;;;4724276;30;20045;-75
2022/07/12 05:29:55;;;;;;;9.02;5.32;;;14.70;99.90;;;;;;4718511;30;20122;-74
2022/07/12 05:33:04;;;;;;;9.00;5.80;;;14.70;99.90;;;;;;4722348;30;20049;-74
2022/07/12 05:35:30;;;;;;;7.15;5.50;;;14.80;99.90;;;;;;4722964;30;20407;-76
2022/07/12 05:37:56;;;;;;;7.05;5.13;;;15.00;99.90;;;;;;4745350;30;20045;-75
2022/07/12 05:40:21;;;;;;;8.55;5.70;;;15.10;99.90;;;;;;4722387;30;20048;-76
2022/07/12 05:42:47;;;;;;;8.32;6.10;;;15.30;99.90;;;;;;4717853;30;20129;-78
2022/07/12 05:45:13;;;;;;;11.63;6.40;;;15.50;99.90;;;;;;4718646;30;20140;-77
2022/07/12 05:47:38;;;;;;;8.38;5.55;;;15.60;99.90;;;;;;4726182;30;20102;-78
2022/07/12 05:50:05;;;;;;;7.50;5.75;;;15.80;99.90;;;;;;4750487;30;20049;-79
2022/07/12 05:55:15;;;;;;;8.05;5.30;;;15.90;99.90;;;;;;4735268;30;20056;-77
2022/07/12 05:57:41;;;;;;;8.48;5.18;;;15.90;99.90;;;;;;4720708;30;20049;-79
2022/07/12 06:00:07;;;;;;;7.50;5.63;;;16.00;99.90;;;;;;4722499;30;20135;-77
2022/07/12 06:02:33;;;;;;;;;;;16.20;99.90;;;;;;4723238;30;20144;-76
2022/07/12 06:04:58;;;;;;;8.52;5.50;;;16.30;99.90;;;;;;4723322;30;19927;-76
2022/07/12 06:07:24;;;;;;;7.05;4.75;;;16.60;99.90;;;;;;4754713;30;20052;-77
2022/07/12 06:09:50;;;;;;;6.88;4.70;;;16.80;99.90;;;;;;4748234;30;20577;-76
2022/07/12 06:12:15;;;;;;;5.45;4.57;;;17.20;99.90;;;;;;4757752;30;20142;-76
2022/07/12 06:14:41;;;;;;;4.95;4.30;;;17.30;99.90;;;;;;4757756;30;20382;-76
2022/07/12 06:17:07;;;;;;;6.65;4.80;;;17.50;99.90;;;;;;4726437;30;20548;-75
2022/07/12 06:19:33;;;;;;;;;;;17.80;99.90;;;;;;4740321;30;20475;-75
2022/07/12 06:21:59;;;;;;;6.75;5.07;;;17.70;99.90;;;;;;4710830;30;19922;-75
2022/07/12 06:24:24;;;;;;;5.53;4.35;;;17.80;99.90;;;;;;4740164;30;20391;-76
2022/07/12 06:26:50;;;;;;;6.45;4.53;;;17.90;99.90;;;;;;4749485;30;20115;-76
2022/07/12 06:29:15;;;;;;;6.38;4.32;;;18.00;99.90;;;;;;4724771;30;20088;-75
2022/07/12 06:31:41;;;;;;;6.10;3.78;;;18.00;99.90;;;;;;4725449;30;20052;-75
2022/07/12 06:34:07;;;;;;;10.30;4.50;;;18.00;99.90;;;;;;4739479;30;20447;-76
2022/07/12 06:36:32;;;;;;;5.75;4.53;;;18.10;99.90;;;;;;4751111;30;20052;-76
2022/07/12 06:38:58;;;;;;;9.18;4.88;;;18.10;99.90;;;;;;4756999;30;20125;-75
2022/07/12 06:41:25;;;;;;;5.72;4.03;;;18.10;99.90;;;;;;4757279;30;20055;-75
2022/07/12 06:43:50;;;;;;;6.03;4.15;;;18.30;99.90;;;;;;4742475;30;20051;-74
2022/07/12 06:46:16;;;;;;;6.35;4.45;;;18.40;99.90;;;;;;4747671;30;20051;-73
2022/07/12 06:48:42;;;;;;;8.32;4.75;;;18.50;99.90;;;;;;4739296;30;20078;-76
2022/07/12 06:51:07;;;;;;;5.43;4.15;;;18.80;99.90;;;;;;4739408;30;20135;-73
2022/07/12 06:53:33;;;;;;;5.22;4.00;;;19.10;99.90;;;;;;4753617;30;20438;-72
2022/07/12 06:55:59;;;;;;;6.55;4.25;;;19.30;99.90;;;;;;4746967;30;20051;-72
2022/07/12 06:58:24;;;;;;;4.40;3.72;;;19.40;99.90;;;;;;4742416;30;20090;-74
2022/07/12 07:00:50;;;;;;;8.52;4.20;;;19.50;99.90;;;;;;4756860;30;20058;-74
2022/07/12 07:03:16;;;;;;;5.03;4.07;;;19.40;99.90;;;;;;4771744;30;20047;-73
2022/07/12 07:05:44;;;;;;;5.20;4.57;;;19.40;99.90;;;;;;4751328;30;20063;-72
2022/07/12 07:08:09;;;;;;;8.57;4.18;;;19.40;99.90;;;;;;4738218;30;20055;-73
2022/07/12 07:10:35;;;;;;;4.57;4.00;;;19.40;99.90;;;;;;4738422;30;20056;-72
2022/07/12 07:13:01;;;;;;;5.47;4.22;;;19.30;99.90;;;;;;4753612;30;20059;-72
2022/07/12 07:15:26;;;;;;;6.18;4.75;;;19.20;99.90;;;;;;4742070;30;20143;-73
2022/07/12 07:17:52;;;;;;;4.97;4.28;;;19.20;99.90;;;;;;4750835;30;20109;-69
2022/07/12 07:20:18;;;;;;;5.82;4.28;;;19.20;99.90;;;;;;4756517;30;20059;-69
2022/07/12 07:22:44;;;;;;;6.45;4.20;;;19.20;99.90;;;;;;4737148;30;20398;-71
2022/07/12 07:25:09;;;;;;;5.22;3.90;;;19.30;99.90;;;;;;4738323;30;20139;-69
2022/07/12 07:27:35;;;;;;;4.80;3.80;;;19.50;99.90;;;;;;4737082;30;20044;-70
2022/07/12 07:32:45;;;;;;;5.75;4.20;;;19.60;99.90;;;;;;4752796;30;20062;-72
2022/07/12 07:35:11;;;;;;;6.07;4.07;;;19.70;99.90;;;;;;4752209;30;20131;-71
2022/07/12 07:37:37;;;;;;;8.38;4.30;;;19.80;99.90;;;;;;4737720;30;20087;-74
2022/07/12 07:40:03;;;;;;;7.82;4.25;;;19.80;99.90;;;;;;4737606;30;20054;-74
2022/07/12 07:42:29;;;;;;;10.65;4.50;;;19.80;99.90;;;;;;4707840;30;20063;-70
2022/07/12 07:44:55;;;;;;;5.80;4.45;;;19.70;99.90;;;;;;4737105;30;20059;-74
2022/07/12 07:47:26;;;;;;;7.60;4.25;;;19.60;99.90;;;;;;4722359;30;20554;-77
2022/07/12 07:50:02;;;;;;;11.48;4.70;;;19.70;99.90;;;;;;4737044;30;20056;-76
2022/07/12 07:52:30;;;;;;;6.47;4.78;;;19.80;99.90;;;;;;4736914;30;20040;-77
2022/07/12 07:54:59;;;;;;;8.73;4.72;;;19.90;99.90;;;;;;4735895;30;20074;-77
2022/07/12 07:57:25;;;;;;;6.03;4.55;;;20.00;99.90;;;;;;4736363;30;20040;-78
2022/07/12 07:59:53;;;;;;;5.82;4.28;;;20.20;99.90;;;;;;4737569;30;20048;-77
2022/07/12 08:02:19;;;;;;;5.72;4.60;;;20.30;99.90;;;;;;4736005;30;20141;-75
2022/07/12 08:04:45;;;;;;;5.90;4.63;;;20.50;99.90;;;;;;4722108;30;20053;-76
2022/07/12 08:07:10;;;;;;;5.30;4.60;;;20.70;99.90;;;;;;4731798;30;20044;-76
2022/07/12 08:10:04;;;;;;;7.05;4.70;;;20.90;99.90;;;;;;4733986;30;20449;-78
2022/07/12 08:12:42;;;;;;;5.25;4.15;;;21.10;99.90;;;;;;4718820;30;20044;-81
2022/07/12 08:15:08;;;;;;;4.68;3.85;;;21.40;99.90;;;;;;4703404;30;20052;-76
2022/07/12 08:17:36;;;;;;;5.13;4.40;;;21.80;99.90;;;;;;4706111;30;20057;-76
2022/07/12 08:20:05;;;;;;;7.70;4.97;;;22.10;99.90;;;;;;4721748;30;20368;-78
2022/07/12 08:22:33;;;;;;;6.07;4.40;;;22.20;99.90;;;;;;4683075;30;20177;-77
2022/07/12 08:24:59;;;;;;;6.22;4.10;;;22.30;99.90;;;;;;4703801;30;20387;-77
2022/07/12 08:27:35;;;;;;;8.15;4.47;;;22.50;99.90;;;;;;4718579;30;20063;-78
2022/07/12 08:30:01;;;;;;;8.43;4.55;;;22.70;99.90;;;;;;4718799;30;20048;-77
2022/07/12 08:32:56;;;;;;;;;;;22.80;99.90;;;;;;4719005;30;20376;-74
2022/07/12 08:35:25;;;;;;;6.40;4.38;;;22.80;99.90;;;;;;4657401;30;19962;-76
2022/07/12 08:37:50;;;;;;;6.55;3.72;;;23.30;99.90;;;;;;4718733;30;20048;-74
2022/07/12 08:40:28;;;;;;;5.72;4.50;;;23.40;99.90;;;;;;4719421;30;20056;-77
2022/07/12 08:43:04;;;;;;;8.40;4.15;;;23.40;99.90;;;;;;4705050;30;20056;-74
2022/07/12 08:48:24;;;;;;;7.60;3.95;;;23.50;99.90;;;;;;4710240;30;20098;-76
2022/07/12 08:51:10;;;;;;;;;;;23.90;99.90;;;;;;4703959;30;20086;-75
2022/07/12 08:54:06;;;;;;;5.47;3.65;;;24.10;99.90;;;;;;4718058;30;19926;-75
2022/07/12 08:56:39;;;;;;;4.90;3.30;;;24.60;99.90;;;;;;4733829;30;20056;-75
2022/07/12 08:59:28;;;;;;;8.07;3.50;;;24.70;99.90;;;;;;4717966;30;20044;-75
2022/07/12 09:02:04;;;;;;;4.22;3.10;;;24.80;99.90;;;;;;4732496;30;20073;-76
2022/07/12 09:04:33;;;;;;;7.00;3.10;;;25.00;99.70;;;;;;4717326;30;20120;-77
2022/07/12 09:07:15;;;;;;;5.18;2.78;;;25.00;99.90;;;;;;4718451;30;20048;-74
2022/07/12 09:09:52;;;;;;;4.18;3.00;;;25.10;99.70;;;;;;4717620;30;20060;-75
2022/07/12 09:12:24;;;;;;;5.57;3.15;;;25.20;99.90;;;;;;4705094;30;20116;-74
2022/07/12 09:15:12;;;;;;;11.35;3.72;;;25.20;99.60;;;;;;4719026;30;20480;-78
2022/07/12 09:18:13;;;;;;;6.35;3.67;;;25.30;99.90;;;;;;4736300;30;20047;-76
2022/07/12 09:20:57;;;;;;;8.00;3.92;;;25.50;99.10;;;;;;4736690;30;20084;-77
2022/07/12 09:23:22;;;;;;;6.75;3.45;;;25.60;99.50;;;;;;4730358;30;20386;-76
2022/07/12 09:25:50;;;;;;;4.97;3.65;;;25.90;99.50;;;;;;4719349;30;20051;-74
2022/07/12 09:28:16;;;;;;;6.53;3.72;;;26.00;98.80;;;;;;4705849;30;20045;-75
2022/07/12 09:38:09;;;;;;;7.05;4.88;;;26.10;96.80;;;;;;4721869;30;20056;-73
2022/07/12 09:40:36;;;;;;;6.10;3.80;;;26.10;96.90;;;;;;4720001;30;20368;-75
2022/07/12 09:43:05;;;;;;;5.03;3.70;;;25.90;97.60;;;;;;4735398;30;20048;-77
2022/07/12 09:45:34;;;;;;;10.00;4.85;;;26.00;98.10;;;;;;4718185;30;20535;-77
2022/07/12 09:48:00;;;;;;;7.13;4.15;;;26.30;97.70;;;;;;4721340;30;20044;-74
2022/07/12 09:50:26;;;;;;;5.82;3.85;;;26.30;97.00;;;;;;4735294;30;20065;-76
2022/07/12 09:52:54;;;;;;;11.52;5.47;;;26.40;96.60;;;;;;4721425;30;20076;-74
2022/07/12 09:55:24;;;;;;;10.82;4.50;;;26.40;96.60;;;;;;4707797;30;20074;-76
2022/07/12 09:57:56;;;;;;;7.22;3.90;;;26.50;96.50;;;;;;4720883;30;20136;-76
2022/07/12 10:01:28;;;;;;;8.68;4.03;;;26.50;96.20;;;;;;4721175;30;20060;-76
2022/07/12 10:04:01;;;;;;;6.68;4.22;;;26.50;96.30;;;;;;4720870;30;20060;-76
2022/07/12 10:06:29;;;;;;;6.65;3.85;;;26.70;96.00;;;;;;4721056;30;20411;-77
2022/07/12 10:08:56;;;;;;;7.03;4.35;;;26.30;94.50;;;;;;4722479;30;20052;-76
2022/07/12 10:11:23;;;;;;;5.72;4.00;;;26.20;95.80;;;;;;4744387;30;20083;-76
2022/07/12 10:13:50;;;;;;;6.38;4.07;;;26.10;96.10;;;;;;4738418;30;20052;-75
2022/07/12 10:16:26;;;;;;;10.55;3.90;;;26.20;96.30;;;;;;4739651;30;20082;-80
2022/07/12 10:19:28;;;;;;;7.47;4.45;;;26.20;95.60;;;;;;4737136;30;20059;-73
2022/07/12 10:21:56;;;;;;;6.90;3.63;;;26.10;95.30;;;;;;4736667;30;20139;-77
2022/07/12 10:24:31;;;;;;;6.30;3.90;;;26.00;95.90;;;;;;4722672;30;20071;-77
2022/07/12 10:27:19;;;;;;;3.97;2.97;;;26.10;95.50;;;;;;4726578;30;20065;-77
2022/07/12 10:29:47;;;;;;;6.85;4.20;;;26.00;96.20;;;;;;4722051;30;20087;-75
2022/07/12 10:32:41;;;;;;;4.80;3.72;;;25.90;95.70;;;;;;4738093;30;20048;-71
2022/07/12 10:35:48;;;;;;;9.10;3.40;;;26.20;95.90;;;;;;4739454;30;20066;-77
2022/07/12 10:38:18;;;;;;;5.65;3.25;;;26.50;95.30;;;;;;4722710;30;20056;-77
2022/07/12 10:40:46;;;;;;;8.73;3.63;;;26.80;95.30;;;;;;4738507;30;20060;-75
2022/07/12 10:43:15;;;;;;;5.60;3.88;;;27.00;94.00;;;;;;4737008;30;20441;-77
2022/07/12 10:45:47;;;;;;;7.47;3.70;;;27.10;94.10;;;;;;4740700;30;20036;-79
2022/07/12 10:48:12;;;;;;;5.45;3.83;;;27.20;94.00;;;;;;4737825;30;20433;-78
2022/07/12 10:50:55;;;;;;;6.32;4.13;;;27.20;93.90;;;;;;4728781;30;20058;-78
2022/07/12 10:53:40;;;;;;;6.75;4.57;;;27.30;93.40;;;;;;4739776;30;20055;-76
2022/07/12 10:56:15;;;;;;;6.78;3.72;;;27.40;92.80;;;;;;4738788;30;20048;-76
2022/07/12 10:58:45;;;;;;;8.65;4.07;;;27.70;92.80;;;;;;4720191;30;20187;-77
2022/07/12 11:01:20;;;;;;;7.93;4.35;;;27.90;93.30;;;;;;4739879;30;20390;-76
2022/07/12 11:03:52;;;;;;;11.90;4.22;;;28.00;91.80;;;;;;4737326;30;20056;-76
2022/07/12 11:06:23;;;;;;;5.97;3.65;;;27.90;92.20;;;;;;4739539;30;20099;-72
2022/07/12 11:09:00;;;;;;;9.05;4.32;;;28.20;92.60;;;;;;4739106;30;20044;-75
2022/07/12 11:11:50;;;;;;;5.82;3.83;;;28.20;92.20;;;;;;4723509;30;20382;-76
2022/07/12 11:14:22;;;;;;;7.63;3.97;;;28.10;92.80;;;;;;4738270;30;20055;-75
2022/07/12 11:16:49;;;;;;;8.25;4.15;;;28.00;92.90;;;;;;4730742;30;20478;-73
2022/07/12 11:19:25;;;;;;;8.93;4.00;;;28.10;92.70;;;;;;4756786;30;20059;-76
2022/07/12 11:21:58;;;;;;;6.95;3.55;;;28.10;92.60;;;;;;4756758;30;20108;-76
2022/07/12 11:24:24;;;;;;;7.55;4.10;;;28.30;92.60;;;;;;4755953;30;20120;-76
2022/07/12 11:26:52;;;;;;;7.30;3.65;;;28.40;92.30;;;;;;4738742;30;20505;-77
2022/07/12 11:29:18;;;;;;;7.50;3.63;;;28.60;92.20;;;;;;4738347;30;20466;-76
2022/07/12 11:31:45;;;;;;;7.38;3.22;;;28.60;91.70;;;;;;4738677;30;20058;-76
2022/07/12 11:34:25;;;;;;;5.70;2.60;;;28.70;90.80;;;;;;4738963;30;20441;-74
2022/07/12 11:36:53;;;;;;;5.97;2.90;;;28.80;90.50;;;;;;4720808;30;20069;-73
2022/07/12 11:39:30;;;;;;;7.55;3.00;;;29.00;88.90;;;;;;4721087;30;20048;-74
2022/07/12 11:41:59;;;;;;;4.35;2.38;;;28.90;88.50;;;;;;4721305;30;20095;-75
2022/07/12 11:44:44;;;;;;;4.72;2.00;;;29.00;87.30;;;;;;4721530;30;20052;-76
2022/07/12 11:47:10;;;;;;;7.45;2.58;;;28.90;83.60;;;;;;4738192;30;20087;-80
2022/07/12 11:49:37;;;;;;;4.03;2.05;;;28.80;83.00;;;;;;4739191;30;20457;-79
2022/07/12 11:52:05;;;;;;;4.85;2.30;;;28.80;83.30;;;;;;4734396;30;20048;-77
2022/07/12 11:54:31;;;;;;;6.60;2.70;;;29.00;81.80;;;;;;4739193;30;20056;-78
2022/07/12 11:57:11;;;;;;;10.00;2.65;;;29.00;83.70;;;;;;4736524;30;20411;-77
2022/07/12 11:59:36;;;;;;;5.90;2.70;;;29.10;80.30;;;;;;4736498;30;20048;-78
2022/07/12 12:02:06;;;;;;;7.32;3.45;;;29.10;81.70;;;;;;4736598;30;20054;-77
2022/07/12 12:04:43;;;;;;;3.90;2.75;;;29.10;81.40;;;;;;4734502;30;20515;-72
2022/07/12 12:07:08;;;;;;;4.68;2.45;;;29.00;81.90;;;;;;4722252;30;20056;-78
2022/07/12 12:10:01;;;;;;;4.25;2.15;;;29.10;80.30;;;;;;4750531;30;20410;-74
2022/07/12 12:12:54;;;;;;;4.78;2.50;;;29.10;77.30;;;;;;4737076;30;20076;-75
2022/07/12 12:15:21;;;;;;;4.75;2.45;;;29.20;79.10;;;;;;4738264;30;20083;-79
2022/07/12 12:17:56;;;;;;;5.63;2.72;;;29.20;79.70;;;;;;4752849;30;20052;-75
2022/07/12 12:20:24;;;;;;;4.85;2.58;;;29.50;79.20;;;;;;4735642;30;20494;-78
2022/07/12 12:23:55;;;;;;;4.72;2.67;;;29.50;78.70;;;;;;4735087;30;20061;-78
2022/07/12 12:26:26;;;;;;;7.85;4.10;;;29.40;78.30;;;;;;4730211;30;20116;-76
2022/07/12 12:28:56;;;;;;;7.43;3.70;;;29.00;78.70;;;;;;4721875;30;20048;-76
2022/07/12 12:31:23;;;;;;;5.00;3.83;;;29.10;80.50;;;;;;4735968;30;20498;-76
2022/07/12 12:34:38;;;;;;;5.95;3.33;;;28.80;79.70;;;;;;4735982;30;20048;-78
2022/07/12 12:37:13;;;;;;;5.93;3.90;;;28.60;82.50;;;;;;4735455;30;20051;-76
2022/07/12 12:40:05;;;;;;;11.57;4.63;;;28.40;83.50;;;;;;4733661;30;20048;-75
2022/07/12 12:42:36;;;;;;;4.97;3.80;;;28.50;84.70;;;;;;4708131;30;20101;-77
2022/07/12 12:45:16;;;;;;;7.88;4.32;;;28.50;85.20;;;;;;4735782;30;20483;-75
2022/07/12 12:48:00;;;;;;;7.50;4.55;;;28.30;85.10;;;;;;4720337;30;20052;-71
2022/07/12 12:51:13;;;;;;;6.35;4.30;;;28.30;86.40;;;;;;4735039;30;20044;-72
2022/07/12 12:53:41;;;;;;;8.35;4.75;;;28.10;86.50;;;;;;4730556;30;20454;-70
2022/07/12 12:56:17;;;;;;;10.73;5.00;;;28.10;87.20;;;;;;4735572;30;20136;-72
2022/07/12 12:58:42;;;;;;;13.95;5.45;;;28.20;86.70;;;;;;4734577;30;20060;-73
2022/07/12 13:01:09;;;;;;;11.23;5.32;;;27.90;86.50;;;;;;4723373;30;20131;-77
2022/07/12 13:03:35;;;;;;;9.80;4.40;;;27.80;87.10;;;;;;4736630;30;20056;-74
2022/07/12 13:06:01;;;;;;;7.13;5.22;;;27.80;88.20;;;;;;4735262;30;20052;-72
2022/07/12 13:08:28;;;;;;;8.10;4.45;;;28.00;88.10;;;;;;4735769;30;20059;-73
2022/07/12 13:13:39;;;;;;;8.15;4.30;;;27.70;87.90;;;;;;4735853;30;20071;-76
2022/07/12 13:16:05;;;;;;;13.73;6.40;;;27.60;89.40;;;;;;4738538;30;20389;-80
2022/07/12 13:18:31;;;;;;;8.85;4.78;;;27.80;88.40;;;;;;4735038;30;20056;-74